Urucuia, Brazil
Current Conditions -  °F | °C
As of 6:00 PM on Friday 19 Dec 2014 (Local Time) from SBMK Reporting Station
Rain Showers Rain Showers  
Wind Chill: 88°   Ceiling: Unl
Heat Index: 88°   Visibility: 6mi
Dew Point: 61°   Wind: 8mph
Humidity: 40%   Direction: 330°NNW
Pressure: 29.83"   Gusts: NA
Location:  16.13°S, 45.74°W
Report Text: SBMK 192000Z 33007KT 9999 VCSH FEW045 FEW050TCU 31/16 Q1010
Loading
Personal Weather Stations






























Interactive Weather Map New forecast layout! Learn more

10-Day Weather Forecast

Advertisements
Track Severe Weather on mobile